Terminal Aerodrome Forecast
Issued by NWS

Current Version | Previous Version | Graphics & Text | Print | Product List | Glossary On
Versions: 1 2 3 4 5 6 7 8 9 10 11 12 13 14 15 16 17 18 19 20 21 22 23 24 25 26 27 28 29 30 31 32 33 34 35 36 37 38 39 40 41 42 43 44
000
FTUS41 KRNK 290928 AAA
TAFLWB
TAF AMD
KLWB 290928Z 2909/3006 00000KT 1/2SM FG OVC001
     FM291300 25004KT P6SM SCT050
     FM291600 23006KT P6SM BKN120
     FM300000 20004KT P6SM OVC080=

USA.gov is the U.S. government's official web portal to all federal, state and local government web resources and services.